Nearchos — SVAI4 — position and weather

sailwx.info

Track history (hours):
 
Tides and Currents Weather Stations Pressure Air Temp Water Temp Dewpoint Dewpoint Depression Visibility Wind Speed Wind Dir Waves Ship Positions

Nearchos

Last reported at 2017-Sep-20 20:17 UTC. Time now 2017-Sep-20 23:46 UTC.
Position N 36°59' E 025°18'.

Length 87 m.

Type: Cargo ship. MMSI: 239945400.

Date/timePositionNaut miles runAvg speedWind from/ knotsBaromVisibWave heightAir tempDewpointWater temp
2017-Sep-20 20:17N 36°59' E 025°18'313.1
2017-Sep-20 20:00N 37°03' E 025°18'613.0
2017-Sep-20 19:31N 37°09' E 025°19'612.7
2017-Sep-20 19:01N 37°15' E 025°18'612.7
2017-Sep-20 18:30N 37°22' E 025°17'611.8
2017-Sep-20 18:01N 37°28' E 025°19'1 1.6
2017-Sep-20 17:31N 37°28' E 025°18'612.7
2017-Sep-20 17:01N 37°29' E 025°10'612.9
2017-Sep-20 16:30N 37°30' E 025°02'712.8
2017-Sep-20 15:59N 37°31' E 024°54'612.5
2017-Sep-20 15:31N 37°29' E 024°47'  
2017-Sep-17 22:02N 38°15' E 024°36'012.9
2017-Sep-17 22:00N 38°15' E 024°36'44 2.0
2017-Sep-16 23:41N 37°31' E 024°44'212.4
2017-Sep-16 23:31N 37°31' E 024°47'712.6
2017-Sep-16 22:57N 37°31' E 024°56'512.6
2017-Sep-16 22:31N 37°30' E 025°02'612.8
2017-Sep-16 22:01N 37°29' E 025°10'713.0
2017-Sep-16 21:31N 37°28' E 025°18'1 1.8
2017-Sep-16 21:00N 37°27' E 025°18'612.7
2017-Sep-16 20:30N 37°21' E 025°16'612.9
2017-Sep-16 20:00N 37°15' E 025°13'712.7
2017-Sep-16 19:27N 37°08' E 025°09'3 5.5
2017-Sep-16 18:50N 37°05' E 025°08'510.3
2017-Sep-16 18:22N 37°09' E 025°12'513.5
2017-Sep-16 18:00N 37°10' E 025°18'510.5
2017-Sep-16 17:30N 37°06' E 025°22'5 9.1
2017-Sep-16 17:00N 37°03' E 025°18'4 0.3
2017-Sep-16 05:22N 36°59' E 025°17'514.1
2017-Sep-16 05:00N 37°04' E 025°19'3 6.4
2017-Sep-16 04:30N 37°07' E 025°22'612.0
2017-Sep-16 04:00N 37°10' E 025°15'612.2
2017-Sep-16 03:30N 37°07' E 025°09'2 4.0
2017-Sep-16 03:00N 37°05' E 025°08'510.8
2017-Sep-16 02:30N 37°10' E 025°10'612.3
2017-Sep-16 02:00N 37°16' E 025°13'612.0
2017-Sep-16 01:30N 37°21' E 025°16'611.8
2017-Sep-16 01:00N 37°27' E 025°18'1 1.4
2017-Sep-16 00:30N 37°28' E 025°18'612.2
2017-Sep-16 00:00N 37°29' E 025°10'612.8
2017-Sep-15 23:30N 37°30' E 025°02'712.6
2017-Sep-15 22:55N 37°32' E 024°53'512.4
2017-Sep-15 22:30N 37°31' E 024°47'  
2017-Sep-11 18:19N 38°17' E 025°16'  
Track history (hours):
 
Tides and Currents Weather Stations Pressure Air Temp Water Temp Dewpoint Dewpoint Depression Visibility Wind Speed Wind Dir Waves Ship Positions

Nearchos

Last reported at 2017-Sep-20 20:17 UTC. Time now 2017-Sep-20 23:46 UTC.
Position N 36°59' E 025°18'.

Length 87 m.

Type: Cargo ship. MMSI: 239945400.

Date/timePositionNaut miles runAvg speedWind from/ knotsBaromVisibWave heightAir tempDewpointWater temp
2017-Sep-20 20:17N 36°59' E 025°18'313.1
2017-Sep-20 20:00N 37°03' E 025°18'613.0
2017-Sep-20 19:31N 37°09' E 025°19'612.7
2017-Sep-20 19:01N 37°15' E 025°18'612.7
2017-Sep-20 18:30N 37°22' E 025°17'611.8
2017-Sep-20 18:01N 37°28' E 025°19'1 1.6
2017-Sep-20 17:31N 37°28' E 025°18'612.7
2017-Sep-20 17:01N 37°29' E 025°10'612.9
2017-Sep-20 16:30N 37°30' E 025°02'712.8
2017-Sep-20 15:59N 37°31' E 024°54'612.5
2017-Sep-20 15:31N 37°29' E 024°47'  
2017-Sep-17 22:02N 38°15' E 024°36'012.9
2017-Sep-17 22:00N 38°15' E 024°36'44 2.0
2017-Sep-16 23:41N 37°31' E 024°44'212.4
2017-Sep-16 23:31N 37°31' E 024°47'712.6
2017-Sep-16 22:57N 37°31' E 024°56'512.6
2017-Sep-16 22:31N 37°30' E 025°02'612.8
2017-Sep-16 22:01N 37°29' E 025°10'713.0
2017-Sep-16 21:31N 37°28' E 025°18'1 1.8
2017-Sep-16 21:00N 37°27' E 025°18'612.7
2017-Sep-16 20:30N 37°21' E 025°16'612.9
2017-Sep-16 20:00N 37°15' E 025°13'712.7
2017-Sep-16 19:27N 37°08' E 025°09'3 5.5
2017-Sep-16 18:50N 37°05' E 025°08'510.3
2017-Sep-16 18:22N 37°09' E 025°12'513.5
2017-Sep-16 18:00N 37°10' E 025°18'510.5
2017-Sep-16 17:30N 37°06' E 025°22'5 9.1
2017-Sep-16 17:00N 37°03' E 025°18'4 0.3
2017-Sep-16 05:22N 36°59' E 025°17'514.1
2017-Sep-16 05:00N 37°04' E 025°19'3 6.4
2017-Sep-16 04:30N 37°07' E 025°22'612.0
2017-Sep-16 04:00N 37°10' E 025°15'612.2
2017-Sep-16 03:30N 37°07' E 025°09'2 4.0
2017-Sep-16 03:00N 37°05' E 025°08'510.8
2017-Sep-16 02:30N 37°10' E 025°10'612.3
2017-Sep-16 02:00N 37°16' E 025°13'612.0
2017-Sep-16 01:30N 37°21' E 025°16'611.8
2017-Sep-16 01:00N 37°27' E 025°18'1 1.4
2017-Sep-16 00:30N 37°28' E 025°18'612.2
2017-Sep-16 00:00N 37°29' E 025°10'612.8
2017-Sep-15 23:30N 37°30' E 025°02'712.6
2017-Sep-15 22:55N 37°32' E 024°53'512.4
2017-Sep-15 22:30N 37°31' E 024°47'  
2017-Sep-11 18:19N 38°17' E 025°16'  

Dump ship's entire track history